Long Beach, CA (90815)

6:27 PM PDT on August 28, 2014 (GMT -0700)
East Long Beach (ke6jdc wthr-net) | Change Station
CLOSE
Current Station
Personal Weather Station
Location: Long Beach, CA
Elevation: 45 ft
Nearby Weather Stations
Active Advisory: High Surf Advisory

Elev 45 ft 33.79 °N, 118.11 °W | Updated 7 minutes ago

Clear
Clear
88.4 °F
Feels Like 85 °F
N
5.0
Wind Variable Wind from WNW
Gusts 5.0 mph

Today
High -- | Low -- °F
--% Chance of Precip.
Yesterday
High -- | Low -- °F
Precip. -- in
6:23 AM 7:23 PM
Waxing Crescent, 11% visible
Pressure 29.86 in
Visibility 10.0 miles
Clouds Clear
Heat Index 85 °F
Dew Point 31 °F
Humidity 13%
Rainfall 0.00 in
Snow Depth Not available.
UV 1 out of 12
Pollen 7.80 out of 12
Ozone Good
Flu Activity Not available.
METAR KLGB 290053Z 30011KT 10SM CLR 30/03 A2986 RMK AO2 SLP112 T03000033

More Conditions Fewer Conditions

Pressure 29.86 in
Visibility 10.0 miles
Clouds Clear
Heat Index 85 °F
Dew Point 31 °F
Humidity 13%
Rainfall 0.00 in
Snow Depth Not available.
UV 1 out of 12
Pollen 7.80 out of 12
Ozone Good
Flu Activity Not available.
METAR KLGB 290053Z 30011KT 10SM CLR 30/03 A2986 RMK AO2 SLP112 T03000033

More Conditions Fewer Conditions

10-Day Weather Forecast

Almanac

Astronomy

Aug. 28, 2014 Rise Set
Actual Time 6:23 AM PDT 7:23 PM PDT
Civil Twilight 5:57 AM PDT 7:48 PM PDT
Nautical Twilight 5:27 AM PDT 8:19 PM PDT
Astronomical Twilight 4:56 AM PDT 8:50 PM PDT
Moon 9:10 AM PDT (8/28) 9:01 PM PDT (8/28)
Length of Visible Light 13h 50m
Length of Day
12h 59m
Tomorrow will be 1m 58s shorter.
Waxing Crescent, 11% of the Moon is Illuminated
Today
Waxing Crescent
Sep 2
First Quarter
Sep 8
Full
Sep 15
Last Quarter
Sep 24
New

Today's Extremes

State Highs State Lows

Community

WunderPhotos

Upload Photos

1,748,126 photos uploaded!

Nearby

Air Quality

  Air Quality AQ Index Pollutant
Current Good
OZONE
Friday Good
PM10
Friday Good
OZONE
Friday Good
CO
Friday Good
NO2

Snow Depth

Station Depth Elevation
Summit Meadow 0 in 9122 ft
Rubicon #2 0 in 7500 ft
Adin Mountain 0 in 6200 ft

Earthquake Activity

City Distance Mag. Time & Date
San Fernando, California 35 miles 2.5 4:57 AM PDT
2014-08-26
Minimum magnitude displayed is 2.5.

Coastal Water Temperatures

Place Temperature
Santa Monica Pier 70.0 °F
Los Angeles, CA 66.0 °F
La Jolla, CA 73.9 °F

Nearby Weather Stations